sensor_id;sensor_type;location;lat;lon;timestamp;P1;durP1;ratioP1;P2;durP2;ratioP2
4895;SDS011;2463;49.948;8.472;2024-03-17T00:01:09;96.90;;;6.40;;
4895;SDS011;2463;49.948;8.472;2024-03-17T00:03:35;93.00;;;6.70;;
4895;SDS011;2463;49.948;8.472;2024-03-17T00:06:01;92.17;;;6.80;;
4895;SDS011;2463;49.948;8.472;2024-03-17T00:08:27;92.27;;;6.50;;
4895;SDS011;2463;49.948;8.472;2024-03-17T00:10:53;91.50;;;6.50;;
4895;SDS011;2463;49.948;8.472;2024-03-17T00:13:20;91.97;;;6.32;;
4895;SDS011;2463;49.948;8.472;2024-03-17T00:15:47;93.38;;;5.97;;
4895;SDS011;2463;49.948;8.472;2024-03-17T00:18:16;102.07;;;6.65;;
4895;SDS011;2463;49.948;8.472;2024-03-17T00:20:43;90.38;;;5.85;;
4895;SDS011;2463;49.948;8.472;2024-03-17T00:23:09;92.50;;;6.20;;
4895;SDS011;2463;49.948;8.472;2024-03-17T00:25:37;91.03;;;6.05;;
4895;SDS011;2463;49.948;8.472;2024-03-17T00:28:03;94.57;;;6.40;;
4895;SDS011;2463;49.948;8.472;2024-03-17T00:30:29;92.85;;;6.45;;
4895;SDS011;2463;49.948;8.472;2024-03-17T00:32:56;94.07;;;6.13;;
4895;SDS011;2463;49.948;8.472;2024-03-17T00:35:26;91.00;;;6.30;;
4895;SDS011;2463;49.948;8.472;2024-03-17T00:37:51;90.67;;;6.00;;
4895;SDS011;2463;49.948;8.472;2024-03-17T00:40:18;93.20;;;6.65;;
4895;SDS011;2463;49.948;8.472;2024-03-17T00:42:45;91.53;;;7.30;;
4895;SDS011;2463;49.948;8.472;2024-03-17T00:45:11;89.30;;;5.90;;
4895;SDS011;2463;49.948;8.472;2024-03-17T00:47:37;99.30;;;6.57;;
4895;SDS011;2463;49.948;8.472;2024-03-17T00:50:03;92.03;;;6.45;;
4895;SDS011;2463;49.948;8.472;2024-03-17T00:52:30;91.43;;;6.03;;
4895;SDS011;2463;49.948;8.472;2024-03-17T00:54:56;90.20;;;5.73;;
4895;SDS011;2463;49.948;8.472;2024-03-17T00:57:22;90.37;;;5.70;;
4895;SDS011;2463;49.948;8.472;2024-03-17T00:59:48;90.82;;;6.05;;
4895;SDS011;2463;49.948;8.472;2024-03-17T01:02:15;91.32;;;6.15;;
4895;SDS011;2463;49.948;8.472;2024-03-17T01:04:43;91.20;;;6.43;;
4895;SDS011;2463;49.948;8.472;2024-03-17T01:07:10;91.53;;;5.65;;
4895;SDS011;2463;49.948;8.472;2024-03-17T01:09:36;93.22;;;6.10;;
4895;SDS011;2463;49.948;8.472;2024-03-17T01:12:02;91.05;;;6.50;;
4895;SDS011;2463;49.948;8.472;2024-03-17T01:14:29;91.57;;;6.10;;
4895;SDS011;2463;49.948;8.472;2024-03-17T01:16:55;91.55;;;6.28;;
4895;SDS011;2463;49.948;8.472;2024-03-17T01:19:22;91.30;;;6.13;;
4895;SDS011;2463;49.948;8.472;2024-03-17T01:21:49;90.38;;;5.95;;
4895;SDS011;2463;49.948;8.472;2024-03-17T01:24:16;91.47;;;6.40;;
4895;SDS011;2463;49.948;8.472;2024-03-17T01:26:42;91.53;;;6.18;;
4895;SDS011;2463;49.948;8.472;2024-03-17T01:29:08;91.73;;;6.03;;
4895;SDS011;2463;49.948;8.472;2024-03-17T01:31:34;93.10;;;6.27;;
4895;SDS011;2463;49.948;8.472;2024-03-17T01:34:00;92.22;;;6.45;;
4895;SDS011;2463;49.948;8.472;2024-03-17T01:36:26;90.10;;;5.70;;
4895;SDS011;2463;49.948;8.472;2024-03-17T01:38:52;90.27;;;5.90;;
4895;SDS011;2463;49.948;8.472;2024-03-17T01:41:17;91.50;;;6.07;;
4895;SDS011;2463;49.948;8.472;2024-03-17T01:43:43;92.27;;;6.70;;
4895;SDS011;2463;49.948;8.472;2024-03-17T01:46:13;91.20;;;5.90;;
4895;SDS011;2463;49.948;8.472;2024-03-17T01:48:40;91.93;;;5.78;;
4895;SDS011;2463;49.948;8.472;2024-03-17T01:51:07;89.68;;;5.38;;
4895;SDS011;2463;49.948;8.472;2024-03-17T01:53:35;91.68;;;6.63;;
4895;SDS011;2463;49.948;8.472;2024-03-17T01:56:03;93.32;;;7.15;;
4895;SDS011;2463;49.948;8.472;2024-03-17T01:58:32;98.10;;;6.45;;
4895;SDS011;2463;49.948;8.472;2024-03-17T02:00:58;99.07;;;7.07;;
4895;SDS011;2463;49.948;8.472;2024-03-17T02:03:24;93.30;;;6.20;;
4895;SDS011;2463;49.948;8.472;2024-03-17T02:05:49;96.17;;;6.93;;
4895;SDS011;2463;49.948;8.472;2024-03-17T02:08:15;93.67;;;7.00;;
4895;SDS011;2463;49.948;8.472;2024-03-17T02:10:41;93.07;;;7.40;;
4895;SDS011;2463;49.948;8.472;2024-03-17T02:13:07;91.67;;;6.53;;
4895;SDS011;2463;49.948;8.472;2024-03-17T02:15:32;93.77;;;7.00;;
4895;SDS011;2463;49.948;8.472;2024-03-17T02:17:58;95.37;;;6.70;;
4895;SDS011;2463;49.948;8.472;2024-03-17T02:20:25;92.57;;;6.82;;
4895;SDS011;2463;49.948;8.472;2024-03-17T02:23:11;92.82;;;6.85;;
4895;SDS011;2463;49.948;8.472;2024-03-17T02:25:37;95.38;;;7.05;;
4895;SDS011;2463;49.948;8.472;2024-03-17T02:28:03;93.37;;;7.17;;
4895;SDS011;2463;49.948;8.472;2024-03-17T02:30:30;91.95;;;6.65;;
4895;SDS011;2463;49.948;8.472;2024-03-17T02:32:56;91.93;;;6.15;;
4895;SDS011;2463;49.948;8.472;2024-03-17T02:35:22;91.90;;;6.60;;
4895;SDS011;2463;49.948;8.472;2024-03-17T02:37:48;92.85;;;6.35;;
4895;SDS011;2463;49.948;8.472;2024-03-17T02:40:14;100.50;;;6.97;;
4895;SDS011;2463;49.948;8.472;2024-03-17T02:42:41;93.25;;;6.82;;
4895;SDS011;2463;49.948;8.472;2024-03-17T02:45:08;92.18;;;6.30;;
4895;SDS011;2463;49.948;8.472;2024-03-17T02:47:34;89.93;;;5.72;;
4895;SDS011;2463;49.948;8.472;2024-03-17T02:50:00;93.90;;;7.10;;
4895;SDS011;2463;49.948;8.472;2024-03-17T02:52:26;91.50;;;5.85;;
4895;SDS011;2463;49.948;8.472;2024-03-17T02:54:52;92.20;;;6.00;;
4895;SDS011;2463;49.948;8.472;2024-03-17T02:57:21;93.60;;;7.07;;
4895;SDS011;2463;49.948;8.472;2024-03-17T02:59:50;94.88;;;6.88;;
4895;SDS011;2463;49.948;8.472;2024-03-17T03:02:17;93.53;;;6.22;;
4895;SDS011;2463;49.948;8.472;2024-03-17T03:04:43;93.50;;;6.70;;
4895;SDS011;2463;49.948;8.472;2024-03-17T03:07:08;92.87;;;6.20;;
4895;SDS011;2463;49.948;8.472;2024-03-17T03:09:34;92.80;;;6.80;;
4895;SDS011;2463;49.948;8.472;2024-03-17T03:12:00;92.47;;;6.83;;
4895;SDS011;2463;49.948;8.472;2024-03-17T03:14:28;93.13;;;6.55;;
4895;SDS011;2463;49.948;8.472;2024-03-17T03:16:54;91.85;;;6.40;;
4895;SDS011;2463;49.948;8.472;2024-03-17T03:19:20;92.00;;;6.33;;
4895;SDS011;2463;49.948;8.472;2024-03-17T03:21:46;93.57;;;6.80;;
4895;SDS011;2463;49.948;8.472;2024-03-17T03:24:13;90.30;;;5.40;;
4895;SDS011;2463;49.948;8.472;2024-03-17T03:26:39;91.70;;;6.47;;
4895;SDS011;2463;49.948;8.472;2024-03-17T03:29:05;94.67;;;6.57;;
4895;SDS011;2463;49.948;8.472;2024-03-17T03:31:31;92.03;;;6.53;;
4895;SDS011;2463;49.948;8.472;2024-03-17T03:33:57;92.78;;;6.75;;
4895;SDS011;2463;49.948;8.472;2024-03-17T03:36:26;92.93;;;6.43;;
4895;SDS011;2463;49.948;8.472;2024-03-17T03:38:52;94.07;;;6.57;;
4895;SDS011;2463;49.948;8.472;2024-03-17T03:41:18;94.10;;;6.95;;
4895;SDS011;2463;49.948;8.472;2024-03-17T03:43:44;95.80;;;6.85;;
4895;SDS011;2463;49.948;8.472;2024-03-17T03:46:13;95.85;;;6.60;;
4895;SDS011;2463;49.948;8.472;2024-03-17T03:48:39;91.47;;;6.10;;
4895;SDS011;2463;49.948;8.472;2024-03-17T03:51:05;91.97;;;6.20;;
4895;SDS011;2463;49.948;8.472;2024-03-17T03:53:34;91.88;;;6.80;;
4895;SDS011;2463;49.948;8.472;2024-03-17T03:56:04;93.75;;;6.90;;
4895;SDS011;2463;49.948;8.472;2024-03-17T03:58:34;93.07;;;6.70;;
4895;SDS011;2463;49.948;8.472;2024-03-17T04:01:04;93.80;;;6.63;;
4895;SDS011;2463;49.948;8.472;2024-03-17T04:03:31;95.22;;;6.70;;
4895;SDS011;2463;49.948;8.472;2024-03-17T04:08:34;94.22;;;7.68;;
4895;SDS011;2463;49.948;8.472;2024-03-17T04:11:01;93.07;;;7.22;;
4895;SDS011;2463;49.948;8.472;2024-03-17T04:13:28;95.18;;;7.32;;
4895;SDS011;2463;49.948;8.472;2024-03-17T04:15:58;92.45;;;6.95;;
4895;SDS011;2463;49.948;8.472;2024-03-17T04:18:25;95.18;;;7.20;;
4895;SDS011;2463;49.948;8.472;2024-03-17T04:20:54;94.65;;;7.35;;
4895;SDS011;2463;49.948;8.472;2024-03-17T04:23:21;94.45;;;7.63;;
4895;SDS011;2463;49.948;8.472;2024-03-17T04:25:47;93.67;;;6.70;;
4895;SDS011;2463;49.948;8.472;2024-03-17T04:28:14;92.78;;;6.70;;
4895;SDS011;2463;49.948;8.472;2024-03-17T04:30:40;91.95;;;6.43;;
4895;SDS011;2463;49.948;8.472;2024-03-17T04:33:08;92.78;;;6.70;;
4895;SDS011;2463;49.948;8.472;2024-03-17T04:35:35;95.65;;;6.78;;
4895;SDS011;2463;49.948;8.472;2024-03-17T04:38:01;93.90;;;6.60;;
4895;SDS011;2463;49.948;8.472;2024-03-17T04:40:27;91.57;;;6.27;;
4895;SDS011;2463;49.948;8.472;2024-03-17T04:42:53;92.60;;;6.33;;
4895;SDS011;2463;49.948;8.472;2024-03-17T04:45:19;91.80;;;6.63;;
4895;SDS011;2463;49.948;8.472;2024-03-17T04:47:44;92.87;;;6.70;;
4895;SDS011;2463;49.948;8.472;2024-03-17T04:50:12;101.93;;;7.25;;
4895;SDS011;2463;49.948;8.472;2024-03-17T04:52:38;94.47;;;7.93;;
4895;SDS011;2463;49.948;8.472;2024-03-17T04:55:04;92.90;;;7.13;;
4895;SDS011;2463;49.948;8.472;2024-03-17T04:57:30;92.63;;;6.80;;
4895;SDS011;2463;49.948;8.472;2024-03-17T04:59:55;92.80;;;6.73;;
4895;SDS011;2463;49.948;8.472;2024-03-17T05:02:21;91.87;;;6.47;;
4895;SDS011;2463;49.948;8.472;2024-03-17T05:04:48;92.65;;;6.50;;
4895;SDS011;2463;49.948;8.472;2024-03-17T05:07:14;94.30;;;7.63;;
4895;SDS011;2463;49.948;8.472;2024-03-17T05:09:40;92.40;;;6.40;;
4895;SDS011;2463;49.948;8.472;2024-03-17T05:12:06;93.90;;;7.00;;
4895;SDS011;2463;49.948;8.472;2024-03-17T05:14:32;92.67;;;7.20;;
4895;SDS011;2463;49.948;8.472;2024-03-17T05:16:57;93.67;;;7.50;;
4895;SDS011;2463;49.948;8.472;2024-03-17T05:19:23;93.47;;;6.80;;
4895;SDS011;2463;49.948;8.472;2024-03-17T05:21:49;95.80;;;6.17;;
4895;SDS011;2463;49.948;8.472;2024-03-17T05:24:14;92.27;;;6.33;;
4895;SDS011;2463;49.948;8.472;2024-03-17T05:26:40;89.88;;;5.90;;
4895;SDS011;2463;49.948;8.472;2024-03-17T05:29:10;93.05;;;6.10;;
4895;SDS011;2463;49.948;8.472;2024-03-17T05:31:36;91.47;;;6.00;;
4895;SDS011;2463;49.948;8.472;2024-03-17T05:34:05;92.80;;;6.15;;
4895;SDS011;2463;49.948;8.472;2024-03-17T05:36:35;108.40;;;6.45;;
4895;SDS011;2463;49.948;8.472;2024-03-17T05:39:01;92.35;;;6.38;;
4895;SDS011;2463;49.948;8.472;2024-03-17T05:41:28;92.47;;;6.75;;
4895;SDS011;2463;49.948;8.472;2024-03-17T05:43:53;92.27;;;6.37;;
4895;SDS011;2463;49.948;8.472;2024-03-17T05:46:23;91.75;;;6.40;;
4895;SDS011;2463;49.948;8.472;2024-03-17T05:48:50;95.80;;;6.70;;
4895;SDS011;2463;49.948;8.472;2024-03-17T05:51:16;91.67;;;5.97;;
4895;SDS011;2463;49.948;8.472;2024-03-17T05:53:42;91.20;;;6.43;;
4895;SDS011;2463;49.948;8.472;2024-03-17T05:56:09;92.07;;;6.32;;
4895;SDS011;2463;49.948;8.472;2024-03-17T05:58:37;93.00;;;6.53;;
4895;SDS011;2463;49.948;8.472;2024-03-17T06:01:04;91.72;;;6.47;;
4895;SDS011;2463;49.948;8.472;2024-03-17T06:03:32;92.57;;;6.85;;
4895;SDS011;2463;49.948;8.472;2024-03-17T06:06:01;96.55;;;7.10;;
4895;SDS011;2463;49.948;8.472;2024-03-17T06:08:28;91.68;;;6.25;;
4895;SDS011;2463;49.948;8.472;2024-03-17T06:10:54;91.20;;;6.28;;
4895;SDS011;2463;49.948;8.472;2024-03-17T06:13:23;94.40;;;6.72;;
4895;SDS011;2463;49.948;8.472;2024-03-17T06:15:49;91.45;;;6.88;;
4895;SDS011;2463;49.948;8.472;2024-03-17T06:18:15;94.03;;;7.33;;
4895;SDS011;2463;49.948;8.472;2024-03-17T06:20:43;92.15;;;6.60;;
4895;SDS011;2463;49.948;8.472;2024-03-17T06:23:14;93.30;;;6.88;;
4895;SDS011;2463;49.948;8.472;2024-03-17T06:25:44;95.80;;;6.28;;
4895;SDS011;2463;49.948;8.472;2024-03-17T06:28:11;92.28;;;6.70;;
4895;SDS011;2463;49.948;8.472;2024-03-17T06:30:42;91.22;;;6.22;;
4895;SDS011;2463;49.948;8.472;2024-03-17T06:33:11;91.63;;;6.70;;
4895;SDS011;2463;49.948;8.472;2024-03-17T06:35:38;91.88;;;6.15;;
4895;SDS011;2463;49.948;8.472;2024-03-17T06:38:04;91.00;;;6.53;;
4895;SDS011;2463;49.948;8.472;2024-03-17T06:40:35;90.82;;;6.75;;
4895;SDS011;2463;49.948;8.472;2024-03-17T06:43:01;93.35;;;7.15;;
4895;SDS011;2463;49.948;8.472;2024-03-17T06:45:27;90.77;;;6.10;;
4895;SDS011;2463;49.948;8.472;2024-03-17T06:47:53;93.67;;;6.23;;
4895;SDS011;2463;49.948;8.472;2024-03-17T06:50:20;92.00;;;6.57;;
4895;SDS011;2463;49.948;8.472;2024-03-17T06:52:46;95.78;;;6.85;;
4895;SDS011;2463;49.948;8.472;2024-03-17T06:55:12;91.50;;;6.63;;
4895;SDS011;2463;49.948;8.472;2024-03-17T06:57:38;91.93;;;6.33;;
4895;SDS011;2463;49.948;8.472;2024-03-17T07:00:09;94.15;;;6.45;;
4895;SDS011;2463;49.948;8.472;2024-03-17T07:02:45;92.25;;;7.00;;
4895;SDS011;2463;49.948;8.472;2024-03-17T07:05:14;92.03;;;7.15;;
4895;SDS011;2463;49.948;8.472;2024-03-17T07:07:44;90.85;;;5.93;;
4895;SDS011;2463;49.948;8.472;2024-03-17T07:10:10;90.13;;;5.85;;
4895;SDS011;2463;49.948;8.472;2024-03-17T07:12:40;93.05;;;6.22;;
4895;SDS011;2463;49.948;8.472;2024-03-17T07:15:06;91.95;;;6.25;;
4895;SDS011;2463;49.948;8.472;2024-03-17T07:17:33;90.85;;;6.53;;
4895;SDS011;2463;49.948;8.472;2024-03-17T07:19:59;89.93;;;5.85;;
4895;SDS011;2463;49.948;8.472;2024-03-17T07:22:26;89.40;;;5.78;;
4895;SDS011;2463;49.948;8.472;2024-03-17T07:24:53;88.47;;;5.35;;
4895;SDS011;2463;49.948;8.472;2024-03-17T07:27:26;92.03;;;5.35;;
4895;SDS011;2463;49.948;8.472;2024-03-17T07:29:55;87.60;;;5.20;;
4895;SDS011;2463;49.948;8.472;2024-03-17T07:32:21;87.97;;;5.57;;
4895;SDS011;2463;49.948;8.472;2024-03-17T07:34:48;89.32;;;5.70;;
4895;SDS011;2463;49.948;8.472;2024-03-17T07:37:15;88.43;;;5.47;;
4895;SDS011;2463;49.948;8.472;2024-03-17T07:39:41;88.50;;;5.20;;
4895;SDS011;2463;49.948;8.472;2024-03-17T07:42:06;87.30;;;5.00;;
4895;SDS011;2463;49.948;8.472;2024-03-17T07:44:32;88.17;;;4.97;;
4895;SDS011;2463;49.948;8.472;2024-03-17T07:47:01;87.65;;;5.03;;
4895;SDS011;2463;49.948;8.472;2024-03-17T07:49:29;90.68;;;5.80;;
4895;SDS011;2463;49.948;8.472;2024-03-17T07:51:55;87.43;;;5.10;;
4895;SDS011;2463;49.948;8.472;2024-03-17T07:54:23;88.07;;;5.13;;
4895;SDS011;2463;49.948;8.472;2024-03-17T07:56:49;88.20;;;5.18;;
4895;SDS011;2463;49.948;8.472;2024-03-17T07:59:15;87.17;;;5.27;;
4895;SDS011;2463;49.948;8.472;2024-03-17T08:01:43;87.47;;;5.00;;
4895;SDS011;2463;49.948;8.472;2024-03-17T08:04:09;87.28;;;5.03;;
4895;SDS011;2463;49.948;8.472;2024-03-17T08:06:37;87.18;;;4.50;;
4895;SDS011;2463;49.948;8.472;2024-03-17T08:09:04;86.13;;;4.40;;
4895;SDS011;2463;49.948;8.472;2024-03-17T08:11:29;88.17;;;4.70;;
4895;SDS011;2463;49.948;8.472;2024-03-17T08:13:55;85.10;;;4.53;;
4895;SDS011;2463;49.948;8.472;2024-03-17T08:16:21;84.40;;;4.20;;
4895;SDS011;2463;49.948;8.472;2024-03-17T08:18:47;85.23;;;3.70;;
4895;SDS011;2463;49.948;8.472;2024-03-17T08:21:12;82.47;;;3.77;;
4895;SDS011;2463;49.948;8.472;2024-03-17T08:23:38;82.47;;;4.10;;
4895;SDS011;2463;49.948;8.472;2024-03-17T08:26:07;83.43;;;3.70;;
4895;SDS011;2463;49.948;8.472;2024-03-17T08:28:33;82.90;;;3.63;;
4895;SDS011;2463;49.948;8.472;2024-03-17T08:31:00;82.43;;;4.17;;
4895;SDS011;2463;49.948;8.472;2024-03-17T08:33:27;81.67;;;3.50;;
4895;SDS011;2463;49.948;8.472;2024-03-17T08:36:04;81.77;;;3.77;;
4895;SDS011;2463;49.948;8.472;2024-03-17T08:38:32;81.57;;;3.63;;
4895;SDS011;2463;49.948;8.472;2024-03-17T08:41:05;81.70;;;3.63;;
4895;SDS011;2463;49.948;8.472;2024-03-17T08:43:33;87.73;;;3.60;;
4895;SDS011;2463;49.948;8.472;2024-03-17T08:46:00;80.77;;;3.50;;
4895;SDS011;2463;49.948;8.472;2024-03-17T08:48:29;81.40;;;3.13;;
4895;SDS011;2463;49.948;8.472;2024-03-17T08:50:59;81.37;;;3.20;;
4895;SDS011;2463;49.948;8.472;2024-03-17T08:53:25;81.70;;;3.30;;
4895;SDS011;2463;49.948;8.472;2024-03-17T08:55:51;80.20;;;3.17;;
4895;SDS011;2463;49.948;8.472;2024-03-17T08:58:18;80.90;;;3.30;;
4895;SDS011;2463;49.948;8.472;2024-03-17T09:00:44;81.37;;;3.40;;
4895;SDS011;2463;49.948;8.472;2024-03-17T09:03:10;80.57;;;3.13;;
4895;SDS011;2463;49.948;8.472;2024-03-17T09:05:40;79.90;;;3.00;;
4895;SDS011;2463;49.948;8.472;2024-03-17T09:08:14;82.00;;;3.17;;
4895;SDS011;2463;49.948;8.472;2024-03-17T09:10:45;80.77;;;3.13;;
4895;SDS011;2463;49.948;8.472;2024-03-17T09:13:15;80.53;;;3.40;;
4895;SDS011;2463;49.948;8.472;2024-03-17T09:15:59;82.17;;;3.53;;
4895;SDS011;2463;49.948;8.472;2024-03-17T09:18:25;83.67;;;3.60;;
4895;SDS011;2463;49.948;8.472;2024-03-17T09:21:02;80.97;;;3.27;;
4895;SDS011;2463;49.948;8.472;2024-03-17T09:23:29;80.97;;;3.40;;
4895;SDS011;2463;49.948;8.472;2024-03-17T09:26:06;81.50;;;3.20;;
4895;SDS011;2463;49.948;8.472;2024-03-17T09:28:38;81.27;;;3.00;;
4895;SDS011;2463;49.948;8.472;2024-03-17T09:31:04;80.60;;;2.90;;
4895;SDS011;2463;49.948;8.472;2024-03-17T09:33:32;81.50;;;3.37;;
4895;SDS011;2463;49.948;8.472;2024-03-17T09:36:03;81.03;;;3.20;;
4895;SDS011;2463;49.948;8.472;2024-03-17T09:38:31;81.90;;;3.00;;
4895;SDS011;2463;49.948;8.472;2024-03-17T09:40:58;82.67;;;3.90;;
4895;SDS011;2463;49.948;8.472;2024-03-17T09:43:26;82.18;;;3.13;;
4895;SDS011;2463;49.948;8.472;2024-03-17T09:45:53;80.77;;;3.10;;
4895;SDS011;2463;49.948;8.472;2024-03-17T09:48:23;81.90;;;3.20;;
4895;SDS011;2463;49.948;8.472;2024-03-17T09:50:54;82.20;;;3.20;;
4895;SDS011;2463;49.948;8.472;2024-03-17T09:53:25;82.95;;;3.50;;
4895;SDS011;2463;49.948;8.472;2024-03-17T09:55:52;80.95;;;3.30;;
4895;SDS011;2463;49.948;8.472;2024-03-17T09:58:21;83.10;;;3.58;;
4895;SDS011;2463;49.948;8.472;2024-03-17T10:00:47;80.70;;;3.00;;
4895;SDS011;2463;49.948;8.472;2024-03-17T10:03:38;82.90;;;3.30;;
4895;SDS011;2463;49.948;8.472;2024-03-17T10:06:11;81.75;;;3.20;;
4895;SDS011;2463;49.948;8.472;2024-03-17T10:08:40;81.50;;;3.33;;
4895;SDS011;2463;49.948;8.472;2024-03-17T10:11:06;80.47;;;2.90;;
4895;SDS011;2463;49.948;8.472;2024-03-17T10:13:32;79.40;;;2.73;;
4895;SDS011;2463;49.948;8.472;2024-03-17T10:15:58;79.67;;;3.10;;
4895;SDS011;2463;49.948;8.472;2024-03-17T10:18:23;78.07;;;2.60;;
4895;SDS011;2463;49.948;8.472;2024-03-17T10:20:49;77.57;;;2.40;;
4895;SDS011;2463;49.948;8.472;2024-03-17T10:23:22;77.20;;;2.40;;
4895;SDS011;2463;49.948;8.472;2024-03-17T10:25:48;77.73;;;2.67;;
4895;SDS011;2463;49.948;8.472;2024-03-17T10:28:14;80.77;;;2.70;;
4895;SDS011;2463;49.948;8.472;2024-03-17T10:30:41;76.93;;;2.37;;
4895;SDS011;2463;49.948;8.472;2024-03-17T10:33:22;78.37;;;2.57;;
4895;SDS011;2463;49.948;8.472;2024-03-17T10:35:50;77.27;;;2.33;;
4895;SDS011;2463;49.948;8.472;2024-03-17T10:38:25;78.23;;;2.60;;
4895;SDS011;2463;49.948;8.472;2024-03-17T10:40:52;78.20;;;2.60;;
4895;SDS011;2463;49.948;8.472;2024-03-17T10:43:18;80.70;;;3.10;;
4895;SDS011;2463;49.948;8.472;2024-03-17T10:45:51;79.17;;;2.90;;
4895;SDS011;2463;49.948;8.472;2024-03-17T10:48:20;79.70;;;3.17;;
4895;SDS011;2463;49.948;8.472;2024-03-17T10:50:47;80.57;;;3.30;;
4895;SDS011;2463;49.948;8.472;2024-03-17T10:53:15;81.30;;;3.90;;
4895;SDS011;2463;49.948;8.472;2024-03-17T10:55:51;81.47;;;4.30;;
4895;SDS011;2463;49.948;8.472;2024-03-17T10:58:35;83.32;;;3.88;;
4895;SDS011;2463;49.948;8.472;2024-03-17T11:01:07;83.57;;;3.80;;
4895;SDS011;2463;49.948;8.472;2024-03-17T11:03:37;86.28;;;3.90;;
4895;SDS011;2463;49.948;8.472;2024-03-17T11:06:03;84.50;;;3.83;;
4895;SDS011;2463;49.948;8.472;2024-03-17T11:08:31;84.72;;;3.90;;
4895;SDS011;2463;49.948;8.472;2024-03-17T11:10:58;88.63;;;4.85;;
4895;SDS011;2463;49.948;8.472;2024-03-17T11:13:28;85.93;;;4.30;;
4895;SDS011;2463;49.948;8.472;2024-03-17T11:15:56;85.50;;;4.05;;
4895;SDS011;2463;49.948;8.472;2024-03-17T11:21:05;84.47;;;4.37;;
4895;SDS011;2463;49.948;8.472;2024-03-17T11:23:41;82.53;;;4.10;;
4895;SDS011;2463;49.948;8.472;2024-03-17T11:26:08;85.90;;;4.00;;
4895;SDS011;2463;49.948;8.472;2024-03-17T11:34:04;80.77;;;3.70;;
4895;SDS011;2463;49.948;8.472;2024-03-17T11:39:06;79.73;;;3.60;;
4895;SDS011;2463;49.948;8.472;2024-03-17T11:46:50;77.83;;;2.97;;
4895;SDS011;2463;49.948;8.472;2024-03-17T11:49:18;78.67;;;3.30;;
4895;SDS011;2463;49.948;8.472;2024-03-17T11:51:53;78.80;;;3.27;;
4895;SDS011;2463;49.948;8.472;2024-03-17T11:54:24;81.50;;;4.00;;
4895;SDS011;2463;49.948;8.472;2024-03-17T11:56:53;78.93;;;3.50;;
4895;SDS011;2463;49.948;8.472;2024-03-17T11:59:20;78.40;;;3.30;;
4895;SDS011;2463;49.948;8.472;2024-03-17T12:01:48;80.37;;;3.93;;
4895;SDS011;2463;49.948;8.472;2024-03-17T12:04:15;80.50;;;3.73;;
4895;SDS011;2463;49.948;8.472;2024-03-17T12:06:58;81.23;;;4.00;;
4895;SDS011;2463;49.948;8.472;2024-03-17T12:09:31;81.20;;;3.73;;
4895;SDS011;2463;49.948;8.472;2024-03-17T12:11:58;88.70;;;4.70;;
4895;SDS011;2463;49.948;8.472;2024-03-17T12:14:24;82.40;;;4.23;;
4895;SDS011;2463;49.948;8.472;2024-03-17T12:16:54;82.63;;;4.43;;
4895;SDS011;2463;49.948;8.472;2024-03-17T12:19:21;83.00;;;4.43;;
4895;SDS011;2463;49.948;8.472;2024-03-17T12:21:49;83.87;;;4.20;;
4895;SDS011;2463;49.948;8.472;2024-03-17T12:24:20;82.63;;;4.60;;
4895;SDS011;2463;49.948;8.472;2024-03-17T12:26:48;84.10;;;4.70;;
4895;SDS011;2463;49.948;8.472;2024-03-17T12:29:25;85.80;;;4.45;;
4895;SDS011;2463;49.948;8.472;2024-03-17T12:31:56;85.40;;;5.00;;
4895;SDS011;2463;49.948;8.472;2024-03-17T12:34:24;88.13;;;4.70;;
4895;SDS011;2463;49.948;8.472;2024-03-17T12:36:54;83.87;;;4.60;;
4895;SDS011;2463;49.948;8.472;2024-03-17T12:44:48;85.17;;;4.53;;
4895;SDS011;2463;49.948;8.472;2024-03-17T12:49:46;87.32;;;4.50;;
4895;SDS011;2463;49.948;8.472;2024-03-17T12:52:17;87.90;;;4.83;;
4895;SDS011;2463;49.948;8.472;2024-03-17T12:54:44;84.60;;;4.30;;
4895;SDS011;2463;49.948;8.472;2024-03-17T12:57:17;83.45;;;5.00;;
4895;SDS011;2463;49.948;8.472;2024-03-17T13:00:16;85.60;;;4.70;;
4895;SDS011;2463;49.948;8.472;2024-03-17T13:02:59;85.70;;;5.10;;
4895;SDS011;2463;49.948;8.472;2024-03-17T13:05:34;87.82;;;5.03;;
4895;SDS011;2463;49.948;8.472;2024-03-17T13:08:01;86.68;;;5.10;;
4895;SDS011;2463;49.948;8.472;2024-03-17T13:10:28;88.07;;;5.45;;
4895;SDS011;2463;49.948;8.472;2024-03-17T13:13:05;87.18;;;5.30;;
4895;SDS011;2463;49.948;8.472;2024-03-17T13:15:33;87.07;;;4.90;;
4895;SDS011;2463;49.948;8.472;2024-03-17T13:18:02;87.68;;;5.45;;
4895;SDS011;2463;49.948;8.472;2024-03-17T13:20:31;88.43;;;5.60;;
4895;SDS011;2463;49.948;8.472;2024-03-17T13:22:57;88.40;;;5.28;;
4895;SDS011;2463;49.948;8.472;2024-03-17T13:25:25;90.72;;;6.07;;
4895;SDS011;2463;49.948;8.472;2024-03-17T13:27:55;88.95;;;5.70;;
4895;SDS011;2463;49.948;8.472;2024-03-17T13:30:21;90.90;;;6.10;;
4895;SDS011;2463;49.948;8.472;2024-03-17T13:32:49;87.90;;;5.97;;
4895;SDS011;2463;49.948;8.472;2024-03-17T13:35:25;90.63;;;5.80;;
4895;SDS011;2463;49.948;8.472;2024-03-17T13:37:53;87.75;;;4.75;;
4895;SDS011;2463;49.948;8.472;2024-03-17T13:40:25;89.53;;;5.70;;
4895;SDS011;2463;49.948;8.472;2024-03-17T13:42:52;87.25;;;5.30;;
4895;SDS011;2463;49.948;8.472;2024-03-17T13:45:20;88.22;;;5.53;;
4895;SDS011;2463;49.948;8.472;2024-03-17T13:47:52;90.35;;;5.07;;
4895;SDS011;2463;49.948;8.472;2024-03-17T13:50:21;86.18;;;5.10;;
4895;SDS011;2463;49.948;8.472;2024-03-17T13:52:47;85.70;;;5.13;;
4895;SDS011;2463;49.948;8.472;2024-03-17T13:55:14;88.75;;;5.47;;
4895;SDS011;2463;49.948;8.472;2024-03-17T13:57:44;89.18;;;5.97;;
4895;SDS011;2463;49.948;8.472;2024-03-17T14:00:12;88.40;;;5.45;;
4895;SDS011;2463;49.948;8.472;2024-03-17T14:02:45;87.88;;;5.10;;
4895;SDS011;2463;49.948;8.472;2024-03-17T14:05:11;90.07;;;6.00;;
4895;SDS011;2463;49.948;8.472;2024-03-17T14:07:39;88.85;;;5.85;;
4895;SDS011;2463;49.948;8.472;2024-03-17T14:10:06;87.82;;;5.35;;
4895;SDS011;2463;49.948;8.472;2024-03-17T14:12:34;88.20;;;5.82;;
4895;SDS011;2463;49.948;8.472;2024-03-17T14:15:00;90.03;;;6.15;;
4895;SDS011;2463;49.948;8.472;2024-03-17T14:17:26;87.63;;;5.38;;
4895;SDS011;2463;49.948;8.472;2024-03-17T14:19:52;87.80;;;5.53;;
4895;SDS011;2463;49.948;8.472;2024-03-17T14:22:18;90.63;;;5.70;;
4895;SDS011;2463;49.948;8.472;2024-03-17T14:24:44;88.07;;;5.30;;
4895;SDS011;2463;49.948;8.472;2024-03-17T14:27:10;89.40;;;5.83;;
4895;SDS011;2463;49.948;8.472;2024-03-17T14:29:38;87.30;;;5.38;;
4895;SDS011;2463;49.948;8.472;2024-03-17T14:32:03;90.40;;;6.43;;
4895;SDS011;2463;49.948;8.472;2024-03-17T14:34:29;88.17;;;5.27;;
4895;SDS011;2463;49.948;8.472;2024-03-17T14:37:01;91.78;;;5.53;;
4895;SDS011;2463;49.948;8.472;2024-03-17T14:39:29;89.07;;;5.65;;
4895;SDS011;2463;49.948;8.472;2024-03-17T14:41:55;90.10;;;6.25;;
4895;SDS011;2463;49.948;8.472;2024-03-17T14:44:21;89.55;;;5.88;;
4895;SDS011;2463;49.948;8.472;2024-03-17T14:46:47;88.40;;;5.53;;
4895;SDS011;2463;49.948;8.472;2024-03-17T14:49:16;90.03;;;5.82;;
4895;SDS011;2463;49.948;8.472;2024-03-17T14:51:43;91.13;;;5.90;;
4895;SDS011;2463;49.948;8.472;2024-03-17T14:54:09;90.33;;;6.00;;
4895;SDS011;2463;49.948;8.472;2024-03-17T14:56:35;92.50;;;6.87;;
4895;SDS011;2463;49.948;8.472;2024-03-17T14:59:01;90.95;;;5.75;;
4895;SDS011;2463;49.948;8.472;2024-03-17T15:01:27;89.30;;;5.83;;
4895;SDS011;2463;49.948;8.472;2024-03-17T15:03:58;89.30;;;5.45;;
4895;SDS011;2463;49.948;8.472;2024-03-17T15:06:24;93.50;;;6.13;;
4895;SDS011;2463;49.948;8.472;2024-03-17T15:08:50;90.97;;;6.10;;
4895;SDS011;2463;49.948;8.472;2024-03-17T15:11:16;90.37;;;6.10;;
4895;SDS011;2463;49.948;8.472;2024-03-17T15:13:43;90.30;;;6.47;;
4895;SDS011;2463;49.948;8.472;2024-03-17T15:16:09;92.57;;;6.15;;
4895;SDS011;2463;49.948;8.472;2024-03-17T15:18:35;92.00;;;6.35;;
4895;SDS011;2463;49.948;8.472;2024-03-17T15:21:02;90.47;;;5.63;;
4895;SDS011;2463;49.948;8.472;2024-03-17T15:23:31;89.07;;;5.93;;
4895;SDS011;2463;49.948;8.472;2024-03-17T15:26:04;91.53;;;5.93;;
4895;SDS011;2463;49.948;8.472;2024-03-17T15:28:34;89.78;;;5.90;;
4895;SDS011;2463;49.948;8.472;2024-03-17T15:31:02;88.72;;;5.70;;